Ana Sayfa
METAR-TAF:

METAR-TAF

Havaalanları :

Bağdat Uluslararası Havaalanı

Bağdat, Irak

Enlem: 33-15-45N, Boylam: 44-14-04E, yükseklik: 35 m

Güncel hava durumu gözlemi

Rapor saat 16:00 UTC de 1 saat ve 2 dakika önce yapıldı.
Rüzgar doğu/güneydoğudan 14 kt
Sıcaklık 21°C
Nem 43%
Basınç 1015 hPa
Görüş mesafesi 10 km veya daha fazla
3000 ft yükseklikte parçalı çok bulutlu

METAR: ORBI 221600Z 11014KT 9999 BKN030 21/08 Q1015 NOSIG

Saat: 20:02 (17:02 UTC)

Tahmin

Rapor saat 11:00 UTC de 6 saat ve 2 dakika önce yapıldı.
Ayın 22'si saat 12 UTC'den ayın 23'si saat 12 UTC'ye kadar geçerli Tahmin
Rüzgar güney/güneydoğudan 12 kt
Görüş mesafesi: 8000 m
4000 ft yükseklikte parçalı bulutlu

TAF: ORBI 221100Z 2212/2312 16012KT 8000 SCT040

4.000'den fazla havaalanı için hava durumu gözlemleri ve tahminleri (METAR ve TAF raporları).

Kullanılabilir istasyonlar harita üzerinde sarı ve kırmızı noktalarla gösterilir.

İstasyonun adını görmek için fareyi noktanın üzerinde gezdirin.

Sonrasında hava gözlem ve tahminlerini görmek için tıklayın.

Haritayı değiştirmek için: yaklaştırmak için siyah artı işaretli yeşil düğmeye ve uzaklaştırmak için de eksi işaretli düğmeye hızla tıklayın; bitişik haritalar için yeşil okları kullanın.


METAR-TAF: